Time;durP1;ratioP1;P1;durP2;ratioP2;P2;SDS_P1;SDS_P2;PMS_P1;PMS_P2;Temp;Humidity;BMP_temperature;BMP_pressure;BME280_temperature;BME280_humidity;BME280_pressure;Samples;Min_cycle;Max_cycle;Signal;HPM_P1;HPM_P2
2023/07/25 00:00:58;;;;;;;7.00;1.48;;;14.70;99.90;;;;;;5026794;28;20030;-72
2023/07/25 00:03:24;;;;;;;7.13;1.60;;;14.60;99.90;;;;;;4991264;28;20515;-72
2023/07/25 00:05:50;;;;;;;9.30;1.30;;;14.60;99.90;;;;;;5006128;28;20591;-72
2023/07/25 00:08:15;;;;;;;5.13;1.33;;;14.60;99.90;;;;;;4988847;28;20124;-72
2023/07/25 00:10:41;;;;;;;4.50;1.48;;;14.60;99.90;;;;;;4993205;28;20066;-72
2023/07/25 00:13:07;;;;;;;9.25;1.70;;;14.60;99.90;;;;;;4988950;28;20128;-72
2023/07/25 00:15:32;;;;;;;3.50;1.20;;;14.60;99.90;;;;;;5018150;28;20050;-72
2023/07/25 00:17:59;;;;;;;4.63;1.35;;;14.60;99.90;;;;;;5008265;28;20488;-72
2023/07/25 00:20:25;;;;;;;5.15;1.58;;;14.50;99.90;;;;;;4987164;28;20034;-72
2023/07/25 00:22:51;;;;;;;5.68;1.40;;;14.50;99.90;;;;;;5023276;28;20149;-72
2023/07/25 00:25:18;;;;;;;7.40;1.60;;;14.50;99.90;;;;;;5006789;28;20096;-72
2023/07/25 00:27:44;;;;;;;6.68;2.35;;;14.50;99.90;;;;;;4970834;28;20497;-71
2023/07/25 00:30:10;;;;;;;10.43;2.10;;;14.50;99.90;;;;;;5015621;28;20037;-72
2023/07/25 00:32:35;;;;;;;5.65;1.63;;;14.50;99.90;;;;;;4991106;28;20052;-72
2023/07/25 00:35:02;;;;;;;5.63;1.45;;;14.50;99.90;;;;;;5007595;28;20078;-72
2023/07/25 00:37:29;;;;;;;7.47;1.52;;;14.60;99.90;;;;;;5019671;28;20046;-72
2023/07/25 00:39:55;;;;;;;6.80;1.42;;;14.60;99.90;;;;;;4988113;28;20314;-72
2023/07/25 00:42:21;;;;;;;5.20;1.58;;;14.60;99.90;;;;;;4986376;28;20433;-72
2023/07/25 00:44:46;;;;;;;3.63;1.20;;;14.60;99.90;;;;;;4984932;28;20084;-72
2023/07/25 00:47:12;;;;;;;5.28;1.00;;;14.60;99.90;;;;;;5006102;28;20038;-71
2023/07/25 00:49:40;;;;;;;5.80;1.33;;;14.60;99.90;;;;;;5007491;28;20034;-71
2023/07/25 00:52:06;;;;;;;6.20;1.42;;;14.70;99.90;;;;;;5003015;28;20073;-72
2023/07/25 00:54:32;;;;;;;4.10;2.72;;;14.70;99.90;;;;;;4990789;28;20073;-71
2023/07/25 00:56:57;;;;;;;7.13;2.03;;;14.70;99.90;;;;;;4972755;28;20117;-72
2023/07/25 00:59:23;;;;;;;4.25;1.30;;;14.70;99.90;;;;;;4988879;28;20475;-72
2023/07/25 01:01:49;;;;;;;5.30;1.58;;;14.60;99.90;;;;;;5005784;28;20100;-72
2023/07/25 01:04:15;;;;;;;3.95;1.50;;;14.60;99.90;;;;;;4986743;28;20092;-72
2023/07/25 01:06:41;;;;;;;5.00;1.60;;;14.60;99.90;;;;;;4996794;28;20041;-72
2023/07/25 01:09:07;;;;;;;4.70;1.25;;;14.60;99.90;;;;;;5009315;28;20049;-73
2023/07/25 01:11:33;;;;;;;7.35;1.80;;;14.50;99.90;;;;;;5028199;28;20042;-72
2023/07/25 01:13:58;;;;;;;7.25;1.50;;;14.50;99.90;;;;;;4995460;28;20129;-71
2023/07/25 01:16:28;;;;;;;4.22;1.83;;;14.50;99.90;;;;;;5007101;28;20492;-71
2023/07/25 01:18:55;;;;;;;7.97;2.03;;;14.50;99.90;;;;;;4996804;28;20050;-72
2023/07/25 01:21:24;;;;;;;5.53;1.45;;;14.50;99.90;;;;;;5001609;28;20049;-72
2023/07/25 01:24:00;;;;;;;5.50;1.88;;;14.50;99.90;;;;;;5023511;28;20152;-72
2023/07/25 01:26:26;;;;;;;8.20;1.58;;;14.50;99.90;;;;;;5027146;28;20058;-72
2023/07/25 01:28:52;;;;;;;5.97;1.05;;;14.40;99.90;;;;;;4999700;28;20521;-72
2023/07/25 01:31:18;;;;;;;4.78;1.27;;;14.40;99.90;;;;;;4998536;28;20183;-72
2023/07/25 01:33:43;;;;;;;3.00;1.20;;;14.40;99.90;;;;;;5007234;28;20048;-72
2023/07/25 01:36:09;;;;;;;6.32;1.70;;;14.40;99.90;;;;;;5025949;28;20383;-72
2023/07/25 01:38:34;;;;;;;3.58;1.33;;;14.40;99.90;;;;;;4994234;28;20113;-72
2023/07/25 01:41:00;;;;;;;2.43;1.37;;;14.30;99.90;;;;;;5000287;28;20037;-72
2023/07/25 01:43:26;;;;;;;7.03;1.40;;;14.30;99.90;;;;;;4996352;28;20349;-72
2023/07/25 01:45:51;;;;;;;7.18;1.67;;;14.40;99.90;;;;;;4991318;28;20042;-71
2023/07/25 01:48:17;;;;;;;4.00;1.60;;;14.40;99.90;;;;;;4986955;28;20044;-72
2023/07/25 01:50:43;;;;;;;12.43;2.05;;;14.40;99.90;;;;;;4987291;28;20070;-72
2023/07/25 01:53:08;;;;;;;9.95;1.85;;;14.40;99.90;;;;;;4994205;28;20136;-72
2023/07/25 01:55:36;;;;;;;4.78;1.77;;;14.40;99.90;;;;;;4989720;28;20064;-72
2023/07/25 01:58:02;;;;;;;4.47;1.60;;;14.40;99.90;;;;;;5009756;28;20048;-72
2023/07/25 02:00:27;;;;;;;5.07;1.48;;;14.40;99.90;;;;;;4994040;28;20081;-72
2023/07/25 02:02:53;;;;;;;4.18;2.10;;;14.40;99.90;;;;;;4997399;28;20050;-72
2023/07/25 02:05:19;;;;;;;5.38;1.25;;;14.40;99.90;;;;;;4990634;28;20044;-72
2023/07/25 02:07:44;;;;;;;3.38;1.05;;;14.40;99.90;;;;;;4998176;28;20080;-72
2023/07/25 02:10:10;;;;;;;7.43;1.63;;;14.40;99.90;;;;;;4995087;28;20661;-72
2023/07/25 02:12:36;;;;;;;6.10;1.33;;;14.40;99.90;;;;;;5021450;28;20054;-72
2023/07/25 02:15:01;;;;;;;10.15;1.90;;;14.40;99.90;;;;;;5005813;28;20061;-72
2023/07/25 02:17:27;;;;;;;7.38;1.75;;;14.40;99.90;;;;;;5023713;28;20053;-72
2023/07/25 02:19:53;;;;;;;4.88;1.85;;;14.40;99.90;;;;;;5024509;28;20084;-72
2023/07/25 02:22:18;;;;;;;5.78;2.25;;;14.50;99.90;;;;;;4992867;28;20045;-72
2023/07/25 02:24:44;;;;;;;10.10;1.92;;;14.40;99.90;;;;;;4997542;28;20053;-72
2023/07/25 02:27:10;;;;;;;9.50;2.40;;;14.50;99.90;;;;;;4993838;28;20069;-72
2023/07/25 02:29:36;;;;;;;3.08;1.83;;;14.50;99.90;;;;;;4992157;28;20046;-72
2023/07/25 02:32:01;;;;;;;3.83;1.80;;;14.40;99.90;;;;;;5007913;28;20045;-72
2023/07/25 02:34:27;;;;;;;4.00;1.77;;;14.50;99.90;;;;;;5011422;28;20046;-72
2023/07/25 02:36:52;;;;;;;3.92;1.63;;;14.50;99.90;;;;;;5005827;28;20041;-72
2023/07/25 02:39:18;;;;;;;3.20;1.30;;;14.40;99.90;;;;;;4994141;28;20045;-72
2023/07/25 02:41:44;;;;;;;8.57;1.42;;;14.50;99.90;;;;;;4991975;28;20553;-72
2023/07/25 02:44:09;;;;;;;11.35;1.30;;;14.50;99.90;;;;;;5007554;28;20034;-72
2023/07/25 02:46:35;;;;;;;6.85;1.42;;;14.40;99.90;;;;;;4988724;28;20136;-72
2023/07/25 02:49:01;;;;;;;6.18;1.25;;;14.40;99.90;;;;;;5024898;28;20045;-72
2023/07/25 02:51:27;;;;;;;4.75;2.03;;;14.40;99.90;;;;;;5006486;28;20038;-71
2023/07/25 02:53:53;;;;;;;7.50;1.52;;;14.40;99.90;;;;;;4994988;28;20045;-72
2023/07/25 02:56:20;;;;;;;3.17;1.20;;;14.40;99.90;;;;;;5007147;28;20045;-72
2023/07/25 02:58:46;;;;;;;5.03;1.30;;;14.40;99.90;;;;;;5013979;28;20045;-72
2023/07/25 03:01:12;;;;;;;5.15;1.45;;;14.30;99.90;;;;;;5005639;28;20444;-72
2023/07/25 03:03:37;;;;;;;4.78;1.45;;;14.30;99.90;;;;;;5011877;28;20072;-72
2023/07/25 03:06:03;;;;;;;5.70;1.50;;;14.30;99.90;;;;;;5005495;28;20099;-72
2023/07/25 03:08:29;;;;;;;4.43;0.93;;;14.30;99.90;;;;;;5030674;28;20282;-72
2023/07/25 03:10:54;;;;;;;3.13;1.48;;;14.30;99.90;;;;;;4991715;28;20050;-73
2023/07/25 03:13:20;;;;;;;6.85;1.60;;;14.20;99.90;;;;;;4995400;28;20042;-71
2023/07/25 03:15:49;;;;;;;4.57;1.42;;;14.20;99.90;;;;;;4989118;28;20049;-72
2023/07/25 03:18:15;;;;;;;5.97;1.27;;;14.30;99.90;;;;;;5001501;28;20064;-72
2023/07/25 03:20:40;;;;;;;7.03;1.58;;;14.20;99.90;;;;;;5006797;28;20100;-72
2023/07/25 03:23:06;;;;;;;4.22;1.10;;;14.20;99.90;;;;;;4995594;28;20042;-72
2023/07/25 03:25:32;;;;;;;5.72;1.58;;;14.20;99.90;;;;;;5007005;28;20516;-72
2023/07/25 03:27:57;;;;;;;5.10;1.27;;;14.20;99.90;;;;;;5007424;28;20439;-72
2023/07/25 03:30:23;;;;;;;2.83;1.10;;;14.10;99.90;;;;;;5024664;28;20050;-72
2023/07/25 03:32:49;;;;;;;5.50;1.42;;;14.10;99.90;;;;;;5007707;28;20113;-72
2023/07/25 03:35:15;;;;;;;4.07;1.35;;;14.10;99.90;;;;;;4992221;28;20165;-72
2023/07/25 03:37:41;;;;;;;;;;;14.00;99.90;;;;;;5021277;28;20129;-72
2023/07/25 03:40:07;;;;;;;5.00;1.38;;;14.00;99.90;;;;;;5021496;28;20374;-72
2023/07/25 03:42:32;;;;;;;4.00;1.25;;;14.00;99.90;;;;;;5021965;28;20038;-72
2023/07/25 03:44:58;;;;;;;5.70;1.27;;;14.00;99.90;;;;;;5001339;28;20869;-72
2023/07/25 03:47:24;;;;;;;4.20;2.55;;;13.90;99.90;;;;;;4984843;28;20704;-72
2023/07/25 03:49:51;;;;;;;7.45;1.45;;;13.90;99.90;;;;;;5026191;28;20128;-72
2023/07/25 03:52:17;;;;;;;9.25;1.40;;;13.90;99.90;;;;;;5018384;28;20489;-72
2023/07/25 03:54:43;;;;;;;3.75;1.35;;;13.90;99.90;;;;;;4989563;28;20038;-72
2023/07/25 03:57:09;;;;;;;7.80;1.85;;;13.80;99.90;;;;;;4996741;28;20046;-72
2023/07/25 03:59:35;;;;;;;4.03;1.35;;;13.80;99.90;;;;;;4997662;28;20074;-71
2023/07/25 04:02:00;;;;;;;15.23;2.28;;;13.80;99.90;;;;;;4995686;28;20626;-72
2023/07/25 04:04:26;;;;;;;3.88;1.27;;;13.80;99.90;;;;;;5024609;28;20041;-71
2023/07/25 04:06:52;;;;;;;4.40;1.60;;;13.80;99.90;;;;;;4993016;28;20399;-71
2023/07/25 04:09:18;;;;;;;4.07;1.30;;;13.80;99.90;;;;;;5021195;28;20081;-72
2023/07/25 04:11:43;;;;;;;7.45;1.85;;;13.70;99.90;;;;;;4992632;28;20347;-72
2023/07/25 04:14:09;;;;;;;8.27;1.00;;;13.70;99.90;;;;;;5024539;28;20049;-72
2023/07/25 04:16:34;;;;;;;4.75;1.23;;;13.80;99.90;;;;;;5004624;28;20076;-72
2023/07/25 04:19:00;;;;;;;5.55;1.38;;;13.70;99.90;;;;;;5022617;28;20041;-72
2023/07/25 04:21:26;;;;;;;7.18;1.40;;;13.70;99.90;;;;;;4993010;28;20069;-72
2023/07/25 04:23:51;;;;;;;4.03;1.10;;;13.70;99.90;;;;;;4988305;28;20042;-71
2023/07/25 04:26:17;;;;;;;7.70;1.45;;;13.70;99.90;;;;;;4993460;28;20136;-72
2023/07/25 04:28:43;;;;;;;4.47;1.33;;;13.70;99.90;;;;;;4989346;28;20046;-72
2023/07/25 04:31:09;;;;;;;7.78;1.60;;;13.70;99.90;;;;;;5020831;28;20041;-73
2023/07/25 04:33:34;;;;;;;6.43;1.65;;;13.70;99.90;;;;;;5006491;28;20046;-72
2023/07/25 04:36:00;;;;;;;5.78;1.25;;;13.70;99.90;;;;;;4997136;28;20502;-72
2023/07/25 04:38:26;;;;;;;5.25;1.38;;;13.80;99.90;;;;;;5007499;28;20069;-72
2023/07/25 04:40:51;;;;;;;5.47;1.27;;;13.70;99.90;;;;;;4994045;28;20576;-72
2023/07/25 04:43:17;;;;;;;8.25;1.50;;;13.70;99.90;;;;;;5008351;28;20038;-72
2023/07/25 04:45:45;;;;;;;8.07;1.80;;;13.70;99.90;;;;;;5009636;28;20396;-72
2023/07/25 04:48:13;;;;;;;5.90;1.52;;;13.70;99.90;;;;;;4996589;28;20452;-73
2023/07/25 04:50:39;;;;;;;8.75;1.25;;;13.70;99.90;;;;;;5006395;28;20038;-71
2023/07/25 04:53:05;;;;;;;3.45;0.95;;;13.70;99.90;;;;;;5032803;28;20106;-72
2023/07/25 04:55:31;;;;;;;;;;;13.80;99.90;;;;;;5021748;28;20584;-71
2023/07/25 04:57:57;;;;;;;6.28;1.50;;;13.70;99.90;;;;;;4996831;28;19917;-71
2023/07/25 05:00:22;;;;;;;5.80;1.17;;;13.80;99.90;;;;;;4993506;28;20041;-71
2023/07/25 05:02:48;;;;;;;6.40;1.60;;;13.80;99.90;;;;;;5015801;28;20381;-71
2023/07/25 05:05:14;;;;;;;3.58;1.70;;;13.80;99.90;;;;;;4996815;28;20067;-71
2023/07/25 05:07:40;;;;;;;5.15;1.23;;;13.80;99.90;;;;;;4992858;28;20507;-71
2023/07/25 05:10:06;;;;;;;7.22;1.30;;;13.80;99.90;;;;;;4996491;28;20037;-71
2023/07/25 05:12:32;;;;;;;3.70;1.17;;;13.80;99.90;;;;;;4991401;28;20046;-71
2023/07/25 05:14:57;;;;;;;5.05;1.02;;;13.90;99.90;;;;;;4996325;28;20476;-71
2023/07/25 05:17:23;;;;;;;8.57;1.10;;;13.90;99.90;;;;;;5008789;28;20042;-71
2023/07/25 05:19:49;;;;;;;2.95;0.95;;;13.90;99.90;;;;;;5011480;28;20034;-71
2023/07/25 05:22:14;;;;;;;7.47;1.02;;;14.00;99.90;;;;;;4991999;28;20064;-71
2023/07/25 05:24:40;;;;;;;3.93;1.30;;;14.00;99.90;;;;;;5009535;28;20385;-71
2023/07/25 05:27:06;;;;;;;6.93;1.23;;;14.00;99.90;;;;;;4995681;28;20370;-71
2023/07/25 05:29:33;;;;;;;3.50;1.48;;;14.00;99.90;;;;;;4994399;28;20283;-71
2023/07/25 05:31:59;;;;;;;2.10;0.93;;;14.00;99.90;;;;;;4993731;28;20412;-71
2023/07/25 05:34:25;;;;;;;8.63;1.25;;;14.00;99.90;;;;;;4995806;28;20049;-71
2023/07/25 05:36:51;;;;;;;7.97;0.90;;;14.00;99.90;;;;;;4995562;28;20068;-71
2023/07/25 05:39:17;;;;;;;4.03;0.90;;;14.00;99.90;;;;;;5028225;28;20121;-71
2023/07/25 05:41:43;;;;;;;6.43;0.80;;;14.00;99.90;;;;;;5001201;28;20172;-71
2023/07/25 05:44:09;;;;;;;6.75;0.70;;;14.00;99.90;;;;;;4998935;28;20072;-71
2023/07/25 05:46:35;;;;;;;11.10;0.90;;;14.10;99.90;;;;;;4992111;28;20044;-70
2023/07/25 05:49:00;;;;;;;2.83;0.57;;;14.10;99.90;;;;;;4989067;28;20046;-71
2023/07/25 05:51:26;;;;;;;3.95;0.70;;;14.20;99.90;;;;;;4995370;28;20050;-75
2023/07/25 05:53:51;;;;;;;2.42;0.82;;;14.20;99.90;;;;;;4997592;28;20484;-75
2023/07/25 05:56:17;;;;;;;3.65;1.17;;;14.20;99.90;;;;;;4989520;28;20034;-72
2023/07/25 05:58:44;;;;;;;2.13;0.85;;;14.20;99.90;;;;;;4996831;28;20396;-72
2023/07/25 06:01:12;;;;;;;3.13;0.80;;;14.30;99.90;;;;;;4973549;28;20049;-72
2023/07/25 06:03:38;;;;;;;4.25;1.05;;;14.30;99.90;;;;;;5002511;28;20084;-72
2023/07/25 06:06:04;;;;;;;3.05;0.63;;;14.40;99.90;;;;;;5000694;28;20141;-71
2023/07/25 06:08:30;;;;;;;5.45;0.70;;;14.40;99.90;;;;;;5030704;28;20054;-72
2023/07/25 06:10:56;;;;;;;5.70;0.80;;;14.50;99.90;;;;;;5030020;28;20719;-72
2023/07/25 06:13:22;;;;;;;8.20;0.77;;;14.50;99.90;;;;;;5000815;28;20065;-72
2023/07/25 06:15:49;;;;;;;7.55;0.90;;;14.60;99.90;;;;;;5027108;28;20034;-72
2023/07/25 06:18:23;;;;;;;4.20;0.60;;;14.50;99.90;;;;;;5024753;28;20081;-72
2023/07/25 06:20:50;;;;;;;3.75;0.55;;;14.60;99.90;;;;;;4995528;28;20124;-72
2023/07/25 06:23:15;;;;;;;5.13;0.50;;;14.70;99.90;;;;;;4990892;28;20469;-71
2023/07/25 06:25:41;;;;;;;4.75;0.60;;;14.70;99.90;;;;;;4987838;28;20048;-71
2023/07/25 06:28:07;;;;;;;3.42;0.35;;;14.80;99.90;;;;;;4992702;28;20128;-72
2023/07/25 06:30:32;;;;;;;1.38;0.40;;;14.80;99.90;;;;;;4989362;28;20206;-71
2023/07/25 06:32:58;;;;;;;2.42;0.50;;;14.80;99.90;;;;;;5008252;28;20081;-71
2023/07/25 06:35:24;;;;;;;2.60;0.77;;;14.90;99.90;;;;;;5009334;28;20271;-72
2023/07/25 06:37:49;;;;;;;2.05;0.35;;;14.90;99.90;;;;;;5022838;28;20042;-72
2023/07/25 06:40:18;;;;;;;1.35;0.43;;;15.00;99.90;;;;;;5028734;28;20404;-72
2023/07/25 06:42:44;;;;;;;2.03;0.47;;;15.00;99.90;;;;;;5006934;28;20038;-71
2023/07/25 06:45:10;;;;;;;1.98;0.50;;;15.00;99.90;;;;;;5022093;28;20089;-72
2023/07/25 06:47:35;;;;;;;7.63;0.75;;;15.10;99.90;;;;;;4992781;28;20034;-71
2023/07/25 06:50:01;;;;;;;1.83;0.68;;;15.10;99.90;;;;;;4996960;28;20060;-72
2023/07/25 06:52:27;;;;;;;2.45;0.65;;;15.20;99.90;;;;;;4989102;28;20133;-72
2023/07/25 06:54:53;;;;;;;2.88;0.68;;;15.20;99.90;;;;;;5031427;28;20128;-72
2023/07/25 06:57:18;;;;;;;2.53;0.35;;;15.20;99.90;;;;;;4996236;28;20111;-72
2023/07/25 06:59:44;;;;;;;4.03;0.52;;;15.20;99.90;;;;;;4993005;28;20030;-72
2023/07/25 07:02:10;;;;;;;0.57;0.30;;;15.30;99.90;;;;;;4998743;28;20120;-72
2023/07/25 07:04:35;;;;;;;4.72;0.65;;;15.40;99.90;;;;;;4993581;28;20128;-72
2023/07/25 07:07:01;;;;;;;1.45;0.57;;;15.40;99.90;;;;;;4997928;28;20042;-72
2023/07/25 07:09:27;;;;;;;2.60;0.50;;;15.50;99.90;;;;;;4995964;28;20510;-72
2023/07/25 07:11:53;;;;;;;5.22;0.70;;;15.60;99.90;;;;;;4993908;28;20117;-71
2023/07/25 07:14:18;;;;;;;1.52;0.50;;;15.70;99.90;;;;;;5023884;28;20049;-73
2023/07/25 07:16:44;;;;;;;1.35;0.30;;;15.70;99.90;;;;;;4996277;28;20042;-74
2023/07/25 07:19:09;;;;;;;1.30;0.52;;;15.70;99.90;;;;;;4993206;28;20419;-74
2023/07/25 07:21:35;;;;;;;2.00;0.80;;;15.70;99.90;;;;;;4994770;28;20084;-72
2023/07/25 07:24:01;;;;;;;2.40;0.55;;;15.70;99.90;;;;;;4993525;28;20045;-71
2023/07/25 07:26:26;;;;;;;2.45;0.90;;;15.70;99.90;;;;;;5006483;28;20081;-74
2023/07/25 07:28:52;;;;;;;3.78;0.55;;;15.70;99.90;;;;;;4991628;28;20041;-71
2023/07/25 07:31:23;;;;;;;3.03;0.35;;;15.70;99.90;;;;;;4998932;28;20091;-72
2023/07/25 07:33:48;;;;;;;1.73;0.57;;;15.70;99.90;;;;;;5002965;28;20049;-73
2023/07/25 07:36:14;;;;;;;4.38;0.55;;;15.70;99.90;;;;;;5011003;28;20081;-73
2023/07/25 07:38:40;;;;;;;4.10;0.63;;;15.80;99.90;;;;;;4996730;28;20050;-72
2023/07/25 07:41:05;;;;;;;4.53;0.88;;;15.90;99.90;;;;;;4997669;28;20214;-72
2023/07/25 07:43:31;;;;;;;3.58;0.50;;;15.90;99.90;;;;;;4995889;28;20940;-72
2023/07/25 07:45:57;;;;;;;3.95;0.50;;;16.00;99.90;;;;;;4990491;28;20050;-72
2023/07/25 07:48:23;;;;;;;2.08;1.00;;;16.00;99.90;;;;;;4988716;28;20045;-72
2023/07/25 07:50:49;;;;;;;2.08;0.40;;;16.10;99.90;;;;;;4995159;28;20500;-72
2023/07/25 07:53:16;;;;;;;1.00;0.28;;;16.20;99.90;;;;;;4999601;28;20444;-72
2023/07/25 07:55:41;;;;;;;;;;;16.20;99.90;;;;;;4991651;28;20042;-72
2023/07/25 07:58:07;;;;;;;3.90;0.43;;;16.30;99.90;;;;;;5010113;28;20268;-72
2023/07/25 08:00:33;;;;;;;2.90;0.55;;;16.30;99.90;;;;;;4989407;28;20411;-72
2023/07/25 08:02:58;;;;;;;3.83;0.63;;;16.30;99.90;;;;;;4995925;28;20042;-72
2023/07/25 08:05:24;;;;;;;2.97;0.73;;;16.40;99.90;;;;;;5006410;28;20029;-72
2023/07/25 08:07:50;;;;;;;2.70;0.47;;;16.40;99.90;;;;;;5014198;28;20045;-72
2023/07/25 08:10:16;;;;;;;1.70;0.50;;;16.40;99.90;;;;;;4999441;28;20041;-72
2023/07/25 08:12:41;;;;;;;0.70;0.30;;;16.50;99.90;;;;;;4994334;28;20502;-72
2023/07/25 08:15:07;;;;;;;1.13;0.35;;;16.60;99.90;;;;;;5007540;28;20052;-72
2023/07/25 08:17:33;;;;;;;2.83;0.80;;;16.70;99.90;;;;;;4991666;28;20412;-72
2023/07/25 08:19:59;;;;;;;5.53;0.63;;;16.80;99.90;;;;;;5026450;28;20037;-72
2023/07/25 08:22:25;;;;;;;3.92;0.50;;;16.90;99.90;;;;;;5027111;28;20057;-71
2023/07/25 08:24:53;;;;;;;1.27;0.30;;;17.00;99.90;;;;;;4993079;28;20447;-72
2023/07/25 08:27:19;;;;;;;1.67;0.70;;;17.10;99.90;;;;;;5002693;28;20367;-72
2023/07/25 08:29:45;;;;;;;4.68;0.93;;;17.10;99.90;;;;;;5025372;28;20447;-72
2023/07/25 08:32:11;;;;;;;3.13;0.63;;;17.10;99.90;;;;;;5009512;28;20122;-72
2023/07/25 08:34:38;;;;;;;3.13;0.50;;;17.00;99.90;;;;;;4995516;28;20405;-72
2023/07/25 08:37:05;;;;;;;4.55;0.60;;;17.00;99.90;;;;;;4998652;28;20121;-72
2023/07/25 08:39:31;;;;;;;2.50;0.43;;;17.10;99.90;;;;;;4995349;28;20100;-71
2023/07/25 08:41:58;;;;;;;2.95;0.63;;;17.10;99.90;;;;;;5013909;28;20046;-73
2023/07/25 08:44:26;;;;;;;2.70;0.55;;;17.20;99.90;;;;;;5034501;28;20381;-72
2023/07/25 08:46:53;;;;;;;2.88;0.40;;;17.30;99.90;;;;;;5025184;28;20121;-73
2023/07/25 08:49:23;;;;;;;2.60;0.38;;;17.40;99.90;;;;;;5025845;28;20469;-72
2023/07/25 08:51:52;;;;;;;2.38;0.40;;;17.40;99.90;;;;;;4998053;28;20042;-72
2023/07/25 08:54:30;;;;;;;2.03;0.40;;;17.40;99.90;;;;;;5013117;28;20117;-72
2023/07/25 08:56:56;;;;;;;0.95;0.35;;;17.30;99.90;;;;;;5001925;28;20670;-72
2023/07/25 08:59:23;;;;;;;1.42;0.40;;;17.30;99.90;;;;;;5006820;28;20073;-72
2023/07/25 09:01:48;;;;;;;4.88;0.70;;;17.40;99.90;;;;;;4994890;28;20041;-72
2023/07/25 09:04:14;;;;;;;2.63;0.63;;;17.50;99.90;;;;;;4993190;28;20042;-72
2023/07/25 09:06:40;;;;;;;1.92;0.60;;;17.60;99.90;;;;;;4993088;28;20054;-72
2023/07/25 09:09:07;;;;;;;6.10;0.77;;;17.60;99.90;;;;;;4990017;28;20038;-72
2023/07/25 09:11:35;;;;;;;1.85;0.35;;;17.50;99.90;;;;;;4991500;28;20136;-72
2023/07/25 09:14:01;;;;;;;3.85;0.52;;;17.40;99.90;;;;;;5025037;28;20049;-72
2023/07/25 09:16:27;;;;;;;2.38;0.50;;;17.50;99.90;;;;;;5000013;28;20407;-72
2023/07/25 09:18:53;;;;;;;1.95;0.68;;;17.50;99.90;;;;;;4995875;28;20437;-72
2023/07/25 09:21:18;;;;;;;4.32;0.50;;;17.50;99.90;;;;;;5014408;28;20030;-72
2023/07/25 09:23:55;;;;;;;6.18;0.73;;;17.70;99.90;;;;;;4982921;28;20050;-72
2023/07/25 09:26:22;;;;;;;;;;;17.70;99.90;;;;;;5026869;28;20045;-72
2023/07/25 09:28:50;;;;;;;1.90;0.50;;;17.80;99.90;;;;;;4989173;28;19961;-72
2023/07/25 09:31:21;;;;;;;4.68;0.60;;;17.90;99.90;;;;;;5014512;28;20047;-72
2023/07/25 09:33:49;;;;;;;3.05;0.40;;;17.90;99.90;;;;;;4990353;28;20042;-72
2023/07/25 09:36:15;;;;;;;1.48;0.70;;;17.90;99.90;;;;;;5025053;28;20057;-72
2023/07/25 09:38:47;;;;;;;2.78;1.00;;;17.90;99.90;;;;;;4996376;28;20045;-71
2023/07/25 09:41:13;;;;;;;1.35;0.55;;;18.00;99.90;;;;;;4998989;28;20034;-72
2023/07/25 09:43:39;;;;;;;1.83;0.55;;;18.00;99.90;;;;;;5015554;28;20038;-72
2023/07/25 09:46:05;;;;;;;2.65;0.45;;;18.10;99.90;;;;;;5025499;28;20073;-72
2023/07/25 09:48:32;;;;;;;3.60;0.60;;;18.20;99.90;;;;;;4992925;28;20057;-72
2023/07/25 09:50:58;;;;;;;0.98;0.35;;;18.20;99.90;;;;;;4997548;28;20053;-72
2023/07/25 09:53:24;;;;;;;3.60;0.50;;;18.30;99.90;;;;;;4991590;28;20149;-72
2023/07/25 09:55:49;;;;;;;4.30;0.85;;;18.40;99.90;;;;;;5019463;28;20068;-72
2023/07/25 09:58:15;;;;;;;2.97;0.50;;;18.50;99.90;;;;;;4994813;28;20094;-72
2023/07/25 10:00:41;;;;;;;3.97;0.63;;;18.60;99.90;;;;;;5009861;28;20046;-73
2023/07/25 10:03:10;;;;;;;1.70;0.50;;;18.60;99.90;;;;;;5035774;28;20045;-73
2023/07/25 10:05:43;;;;;;;1.38;0.35;;;18.70;99.90;;;;;;4996762;28;20045;-72
2023/07/25 10:08:11;;;;;;;4.63;0.55;;;18.80;99.90;;;;;;4994057;28;20045;-73
2023/07/25 10:10:37;;;;;;;2.20;0.73;;;18.90;99.90;;;;;;4995182;28;20124;-72
2023/07/25 10:13:02;;;;;;;3.90;0.82;;;19.00;99.90;;;;;;5008672;28;20077;-72
2023/07/25 10:15:29;;;;;;;1.50;0.40;;;18.90;99.90;;;;;;5031064;28;20590;-73
2023/07/25 10:18:20;;;;;;;1.30;0.40;;;18.80;99.90;;;;;;5020884;28;20404;-73
2023/07/25 10:20:48;;;;;;;3.45;0.47;;;19.00;99.90;;;;;;4992851;28;20034;-72
2023/07/25 10:23:14;;;;;;;3.00;0.57;;;19.10;99.90;;;;;;4990321;28;20053;-72
2023/07/25 10:25:41;;;;;;;3.35;0.50;;;19.20;99.90;;;;;;5002898;28;20473;-73
2023/07/25 10:28:07;;;;;;;0.50;0.30;;;19.30;99.90;;;;;;5026374;28;20085;-72
2023/07/25 10:30:43;;;;;;;2.63;0.45;;;19.30;99.90;;;;;;5027996;28;20112;-72
2023/07/25 10:33:14;;;;;;;1.80;0.30;;;19.30;99.90;;;;;;4991680;28;20053;-72
2023/07/25 10:35:47;;;;;;;2.80;0.68;;;19.10;99.90;;;;;;4993658;28;20038;-73
2023/07/25 10:38:14;;;;;;;2.17;0.40;;;19.00;99.90;;;;;;5028420;28;20113;-73
2023/07/25 10:40:53;;;;;;;3.20;0.80;;;18.80;99.90;;;;;;5026486;28;20206;-72
2023/07/25 10:43:21;;;;;;;1.50;0.40;;;18.70;99.90;;;;;;5022130;28;20068;-72
2023/07/25 10:45:52;;;;;;;2.75;0.70;;;18.60;99.90;;;;;;4993964;28;20496;-72
2023/07/25 10:48:44;;;;;;;1.33;0.40;;;18.60;99.90;;;;;;4990482;28;20120;-72
2023/07/25 10:51:12;;;;;;;5.40;0.45;;;18.60;99.90;;;;;;4988176;28;20169;-73
2023/07/25 10:53:37;;;;;;;3.90;0.50;;;18.60;99.90;;;;;;5024152;28;20052;-72
2023/07/25 10:56:03;;;;;;;1.45;0.40;;;18.60;99.90;;;;;;4994246;28;20459;-74
2023/07/25 10:58:30;;;;;;;1.45;0.45;;;18.60;99.90;;;;;;4993759;28;20496;-72
2023/07/25 11:00:56;;;;;;;4.90;0.68;;;18.70;99.90;;;;;;5012440;28;20044;-72
2023/07/25 11:03:33;;;;;;;1.33;0.63;;;18.70;99.90;;;;;;4992292;28;20046;-72
2023/07/25 11:06:21;;;;;;;2.78;0.40;;;18.70;99.90;;;;;;5019282;28;20100;-72
2023/07/25 11:08:48;;;;;;;4.13;0.47;;;18.70;99.90;;;;;;4970524;28;20500;-72
2023/07/25 11:11:13;;;;;;;;;;;18.80;99.90;;;;;;4993928;28;20169;-72
2023/07/25 11:13:40;;;;;;;0.85;0.30;;;18.80;99.90;;;;;;4987356;28;20008;-72
2023/07/25 11:16:09;;;;;;;6.35;0.30;;;18.90;99.90;;;;;;4989523;28;20435;-72
2023/07/25 11:18:47;;;;;;;2.95;0.40;;;19.00;99.90;;;;;;5025626;28;20473;-73
2023/07/25 11:21:13;;;;;;;4.07;0.43;;;19.10;99.90;;;;;;4987341;28;20040;-73
2023/07/25 11:23:39;;;;;;;;;;;19.10;99.90;;;;;;4994998;28;20057;-72
2023/07/25 11:26:08;;;;;;;5.53;0.40;;;18.90;99.90;;;;;;5006837;28;20335;-72
2023/07/25 11:28:37;;;;;;;1.05;0.30;;;18.80;99.90;;;;;;4996702;28;20115;-72
2023/07/25 11:31:02;;;;;;;1.10;0.40;;;18.70;99.90;;;;;;5028940;28;20042;-72
2023/07/25 11:33:40;;;;;;;1.33;0.32;;;18.60;99.90;;;;;;4995505;28;20053;-72
2023/07/25 11:36:06;;;;;;;0.60;0.30;;;18.60;99.90;;;;;;4991048;28;20045;-72
2023/07/25 11:38:35;;;;;;;0.95;0.28;;;18.60;99.90;;;;;;5027472;28;20041;-72
2023/07/25 11:41:01;;;;;;;3.92;0.40;;;18.60;99.90;;;;;;4990482;28;20403;-73
2023/07/25 11:43:29;;;;;;;2.35;0.40;;;18.60;99.90;;;;;;4992529;28;20248;-72
2023/07/25 11:45:54;;;;;;;3.70;0.40;;;18.70;99.90;;;;;;5003759;28;20104;-73
2023/07/25 11:48:21;;;;;;;2.50;0.38;;;18.70;99.90;;;;;;5005611;28;20046;-72
2023/07/25 11:50:49;;;;;;;2.58;0.40;;;18.80;99.90;;;;;;4995312;28;20046;-73
2023/07/25 11:53:20;;;;;;;4.70;0.55;;;19.00;99.90;;;;;;4994070;28;20444;-72
2023/07/25 11:55:47;;;;;;;7.30;0.93;;;19.30;99.90;;;;;;4993885;28;20176;-73
2023/07/25 11:58:20;;;;;;;3.67;0.50;;;19.50;99.90;;;;;;4991628;28;20096;-72
2023/07/25 12:00:51;;;;;;;2.10;0.30;;;19.50;99.90;;;;;;5016035;28;20076;-72
2023/07/25 12:03:20;;;;;;;2.75;0.30;;;19.40;99.90;;;;;;5023965;28;20125;-72
2023/07/25 12:06:00;;;;;;;3.28;0.47;;;19.30;99.90;;;;;;4987935;28;20045;-72
2023/07/25 12:08:31;;;;;;;2.53;0.30;;;19.20;99.90;;;;;;4991583;28;20108;-72
2023/07/25 12:11:03;;;;;;;1.65;0.60;;;19.00;99.90;;;;;;5014261;28;20046;-72
2023/07/25 12:13:29;;;;;;;2.40;0.40;;;18.80;99.90;;;;;;5010215;28;20045;-72
2023/07/25 12:15:56;;;;;;;0.95;0.30;;;18.70;99.90;;;;;;4989517;28;20042;-72
2023/07/25 12:18:34;;;;;;;3.03;0.63;;;18.50;99.90;;;;;;5021283;28;20060;-72
2023/07/25 12:21:02;;;;;;;2.28;0.52;;;18.30;99.90;;;;;;5001187;28;20045;-72
2023/07/25 12:23:32;;;;;;;2.13;0.40;;;18.00;99.90;;;;;;4991470;28;20050;-72
2023/07/25 12:26:00;;;;;;;3.28;0.70;;;17.80;99.90;;;;;;5017281;28;20129;-73
2023/07/25 12:28:44;;;;;;;3.40;0.90;;;17.60;99.90;;;;;;4992618;28;20069;-72
2023/07/25 12:31:11;;;;;;;3.42;0.47;;;17.50;99.90;;;;;;4986082;28;20064;-72
2023/07/25 12:33:38;;;;;;;4.43;0.77;;;17.40;99.90;;;;;;5026823;28;20056;-72
2023/07/25 12:36:04;;;;;;;3.30;0.73;;;17.40;99.90;;;;;;4985644;28;20038;-72
2023/07/25 12:38:30;;;;;;;5.35;0.80;;;17.40;99.90;;;;;;5007132;28;20471;-71
2023/07/25 12:40:58;;;;;;;5.40;0.60;;;17.30;99.90;;;;;;5074437;22;20050;-80
2023/07/25 12:43:27;;;;;;;1.13;0.85;;;17.30;99.90;;;;;;4985567;28;20129;-82
2023/07/25 12:45:55;;;;;;;1.60;0.60;;;17.30;99.90;;;;;;5016122;28;20048;-82